createdAt,value
2023-05-19T00:00:47.827Z,62.20
2023-05-19T00:01:46.640Z,61.71
2023-05-19T00:02:46.536Z,64.78
2023-05-19T00:03:45.617Z,60.91
2023-05-19T00:04:45.620Z,62.84
2023-05-19T00:05:45.690Z,65.90
2023-05-19T00:06:45.603Z,67.51
2023-05-19T00:07:45.601Z,57.85
2023-05-19T00:08:45.588Z,59.94
2023-05-19T00:09:45.592Z,59.62
2023-05-19T00:10:45.568Z,62.68
2023-05-19T00:11:45.564Z,56.72
2023-05-19T00:12:45.565Z,46.41
2023-05-19T00:13:45.523Z,57.52
2023-05-19T00:14:45.526Z,63.16
2023-05-19T00:15:45.546Z,63.16
2023-05-19T00:16:45.530Z,56.40
2023-05-19T00:17:46.515Z,62.20
2023-05-19T00:18:46.464Z,47.53
2023-05-19T00:19:45.484Z,62.04
2023-05-19T00:22:45.041Z,65.58
2023-05-19T00:23:44.994Z,60.42
2023-05-19T00:24:45.658Z,64.29
2023-05-19T00:25:44.986Z,58.97
2023-05-19T00:26:44.967Z,59.94
2023-05-19T00:27:46.063Z,60.10
2023-05-19T00:28:47.101Z,48.02
2023-05-19T00:29:46.063Z,61.87
2023-05-19T00:30:46.043Z,55.91
2023-05-19T00:31:46.053Z,49.31
2023-05-19T00:32:46.082Z,61.07
2023-05-19T00:33:46.677Z,48.50
2023-05-19T00:34:46.002Z,60.26
2023-05-19T00:35:46.019Z,65.74
2023-05-19T00:36:46.009Z,66.87
2023-05-19T00:37:45.997Z,62.36
2023-05-19T00:38:45.987Z,61.07
2023-05-19T00:39:45.973Z,46.73
2023-05-19T00:40:45.969Z,56.40
2023-05-19T00:41:45.946Z,64.78
2023-05-19T00:42:45.963Z,47.70
2023-05-19T00:43:45.938Z,46.89
2023-05-19T00:44:45.966Z,47.05
2023-05-19T00:45:46.685Z,60.75
2023-05-19T00:46:45.943Z,59.62
2023-05-19T00:47:45.944Z,57.20
2023-05-19T00:48:45.948Z,55.43
2023-05-19T00:49:45.895Z,46.08
2023-05-19T00:50:45.903Z,61.23
2023-05-19T00:51:45.881Z,60.59
2023-05-19T00:52:45.875Z,64.61
2023-05-19T00:53:45.866Z,55.43
2023-05-19T00:54:45.870Z,55.91
2023-05-19T00:55:45.894Z,57.52
2023-05-19T00:56:45.857Z,56.72
2023-05-19T00:57:45.850Z,48.34
2023-05-19T00:58:45.817Z,47.53
2023-05-19T00:59:45.817Z,48.34
2023-05-19T01:00:45.916Z,56.07
2023-05-19T01:01:45.836Z,56.72
2023-05-19T01:02:45.859Z,61.39
2023-05-19T01:03:45.833Z,59.46
2023-05-19T01:04:45.777Z,61.39
2023-05-19T01:05:45.781Z,50.11
2023-05-19T01:06:45.769Z,55.75
2023-05-19T01:07:45.782Z,56.88
2023-05-19T01:08:45.759Z,64.61
2023-05-19T01:09:45.749Z,67.51
2023-05-19T01:10:45.736Z,59.62
2023-05-19T01:11:45.734Z,59.46
2023-05-19T01:12:45.732Z,61.55
2023-05-19T01:13:46.676Z,53.33
2023-05-19T01:14:45.712Z,52.37
2023-05-19T01:15:45.699Z,50.92
2023-05-19T01:16:45.726Z,54.95
2023-05-19T01:17:45.723Z,48.98
2023-05-19T01:18:45.706Z,52.05
2023-05-19T01:19:45.665Z,55.91
2023-05-19T01:20:45.726Z,50.76
2023-05-19T01:21:45.655Z,49.31
2023-05-19T01:22:45.637Z,50.27
2023-05-19T01:23:45.649Z,50.27
2023-05-19T01:24:45.627Z,62.36
2023-05-19T01:25:45.672Z,58.97
2023-05-19T01:26:45.609Z,49.63
2023-05-19T01:27:45.613Z,59.14
2023-05-19T01:28:45.617Z,64.45
2023-05-19T01:29:45.603Z,52.85
2023-05-19T01:30:45.609Z,60.10
2023-05-19T01:31:45.611Z,65.42
2023-05-19T01:32:45.624Z,62.04
2023-05-19T01:33:45.584Z,63.00
2023-05-19T01:34:45.560Z,62.52
2023-05-19T01:35:45.539Z,60.10
2023-05-19T01:36:45.531Z,64.45
2023-05-19T01:37:45.547Z,57.36
2023-05-19T01:38:45.536Z,68.48
2023-05-19T01:39:45.555Z,59.94
2023-05-19T01:40:45.520Z,63.33
2023-05-19T01:41:46.196Z,55.43
2023-05-19T01:42:45.528Z,58.01
2023-05-19T01:43:45.495Z,63.16
2023-05-19T01:44:45.489Z,62.04
2023-05-19T01:45:45.502Z,51.08
2023-05-19T01:46:45.466Z,64.29
2023-05-19T01:47:45.523Z,49.31
2023-05-19T01:48:45.449Z,54.14
2023-05-19T01:49:45.447Z,49.31
2023-05-19T01:50:45.431Z,58.81
2023-05-19T01:51:45.439Z,57.69
2023-05-19T01:52:45.413Z,64.13
2023-05-19T01:53:45.454Z,58.81
2023-05-19T01:54:46.184Z,62.84
2023-05-19T01:55:45.408Z,58.01
2023-05-19T01:56:45.389Z,63.49
2023-05-19T01:57:45.380Z,61.07
2023-05-19T01:58:45.370Z,60.42
2023-05-19T01:59:45.379Z,65.90
2023-05-19T02:00:45.357Z,60.26
2023-05-19T02:01:45.447Z,59.78
2023-05-19T02:02:45.342Z,53.82
2023-05-19T02:03:45.330Z,59.30
2023-05-19T02:04:45.399Z,58.49
2023-05-19T02:05:45.303Z,57.85
2023-05-19T02:06:45.302Z,57.52
2023-05-19T02:07:45.305Z,60.75
2023-05-19T02:08:45.297Z,57.85
2023-05-19T02:09:45.296Z,62.04
2023-05-19T02:10:45.276Z,57.52
2023-05-19T02:11:45.275Z,62.20
2023-05-19T02:12:45.256Z,61.07
2023-05-19T02:13:45.254Z,56.72
2023-05-19T02:14:46.244Z,60.26
2023-05-19T02:15:45.252Z,61.07
2023-05-19T02:16:45.263Z,56.40
2023-05-19T02:17:45.333Z,61.55
2023-05-19T02:18:45.355Z,65.90
2023-05-19T02:19:45.196Z,61.55
2023-05-19T02:20:45.207Z,57.20
2023-05-19T02:21:45.185Z,59.30
2023-05-19T02:22:45.190Z,63.81
2023-05-19T02:23:45.175Z,58.01
2023-05-19T02:24:45.166Z,62.20
2023-05-19T02:25:45.178Z,57.36
2023-05-19T02:26:45.147Z,64.78
2023-05-19T02:27:45.147Z,66.55
2023-05-19T02:28:45.127Z,66.23
2023-05-19T02:29:45.132Z,63.97
2023-05-19T02:30:45.121Z,57.20
2023-05-19T02:31:45.186Z,61.55
2023-05-19T02:32:45.138Z,61.23
2023-05-19T02:33:45.131Z,61.07
2023-05-19T02:34:45.782Z,61.55
2023-05-19T02:35:45.082Z,56.88
2023-05-19T02:36:45.070Z,58.01
2023-05-19T02:37:45.089Z,59.30
2023-05-19T02:38:45.048Z,60.59
2023-05-19T02:39:45.054Z,58.97
2023-05-19T02:40:45.045Z,63.65
2023-05-19T02:41:46.032Z,59.46
2023-05-19T02:42:45.042Z,58.33
2023-05-19T02:43:45.032Z,63.65
2023-05-19T02:44:45.009Z,59.30
2023-05-19T02:45:45.008Z,64.13
2023-05-19T02:46:45.081Z,60.75
2023-05-19T02:47:45.022Z,60.59
2023-05-19T02:48:44.984Z,62.84
2023-05-19T02:49:44.971Z,61.23
2023-05-19T02:50:44.962Z,67.84
2023-05-19T02:51:45.028Z,58.97
2023-05-19T02:52:46.742Z,60.10
2023-05-19T02:53:44.923Z,65.10
2023-05-19T02:54:45.786Z,65.10
2023-05-19T02:55:44.946Z,66.23
2023-05-19T02:56:44.929Z,65.10
2023-05-19T02:57:44.894Z,61.07
2023-05-19T02:58:44.901Z,63.33
2023-05-19T02:59:44.903Z,59.62
2023-05-19T03:00:44.871Z,62.36
2023-05-19T03:01:44.958Z,67.35
2023-05-19T03:02:44.912Z,58.33
2023-05-19T03:03:44.969Z,60.59
2023-05-19T03:04:44.845Z,61.87
2023-05-19T03:05:44.829Z,73.15
2023-05-19T03:06:44.824Z,62.84
2023-05-19T03:07:44.826Z,70.09
2023-05-19T03:08:44.808Z,65.10
2023-05-19T03:09:44.814Z,65.10
2023-05-19T03:10:45.775Z,68.00
2023-05-19T03:11:45.709Z,70.90
2023-05-19T03:12:44.801Z,73.48
2023-05-19T03:13:44.770Z,66.55
2023-05-19T03:14:44.766Z,57.69
2023-05-19T03:15:44.742Z,59.62
2023-05-19T03:16:44.905Z,74.28
2023-05-19T03:17:44.865Z,68.16
2023-05-19T03:18:44.734Z,72.99
2023-05-19T03:19:44.721Z,69.61
2023-05-19T03:20:45.305Z,68.80
2023-05-19T03:21:44.709Z,63.49
2023-05-19T03:22:44.720Z,66.06
2023-05-19T03:23:44.705Z,64.45
2023-05-19T03:24:44.686Z,64.61
2023-05-19T03:25:44.683Z,65.74
2023-05-19T03:26:44.666Z,68.16
2023-05-19T03:27:44.708Z,62.04
2023-05-19T03:28:44.653Z,61.87
2023-05-19T03:29:44.641Z,63.16
2023-05-19T03:30:44.656Z,63.65
2023-05-19T03:31:44.662Z,73.96
2023-05-19T03:32:44.712Z,66.87
2023-05-19T03:33:44.677Z,65.42
2023-05-19T03:34:44.637Z,64.29
2023-05-19T03:35:44.621Z,67.03
2023-05-19T03:36:44.588Z,68.16
2023-05-19T03:37:44.586Z,76.22
2023-05-19T03:38:44.579Z,66.55
2023-05-19T03:39:44.575Z,74.28
2023-05-19T03:40:44.563Z,69.93
2023-05-19T03:41:44.576Z,65.42
2023-05-19T03:42:44.566Z,72.99
2023-05-19T03:43:44.549Z,67.35
2023-05-19T03:44:44.550Z,65.42
2023-05-19T03:45:44.613Z,65.42
2023-05-19T03:46:44.557Z,67.19
2023-05-19T03:47:44.577Z,64.29
2023-05-19T03:48:44.509Z,63.33
2023-05-19T03:49:44.527Z,67.51
2023-05-19T03:50:44.497Z,73.96
2023-05-19T03:51:44.483Z,69.29
2023-05-19T03:52:44.482Z,79.76
2023-05-19T03:53:44.460Z,67.19
2023-05-19T03:54:44.469Z,79.28
2023-05-19T03:55:44.473Z,67.51
2023-05-19T03:56:44.456Z,66.39
2023-05-19T03:57:44.501Z,68.32
2023-05-19T03:58:44.497Z,67.84
2023-05-19T03:59:44.414Z,68.16
2023-05-19T04:00:44.415Z,72.83
2023-05-19T04:01:44.423Z,70.25
2023-05-19T04:02:44.542Z,75.25
2023-05-19T04:03:44.446Z,62.36
2023-05-19T04:04:44.438Z,68.64
2023-05-19T04:05:44.393Z,67.19
2023-05-19T04:06:45.213Z,60.10
2023-05-19T04:07:44.386Z,66.06
2023-05-19T04:08:44.364Z,63.33
2023-05-19T04:09:44.372Z,61.23
2023-05-19T04:10:44.353Z,68.80
2023-05-19T04:11:44.341Z,66.87
2023-05-19T04:12:44.318Z,65.10
2023-05-19T04:13:45.200Z,66.87
2023-05-19T04:14:44.306Z,67.51
2023-05-19T04:15:44.312Z,65.74
2023-05-19T04:16:44.312Z,64.45
2023-05-19T04:17:44.368Z,65.74
2023-05-19T04:18:44.797Z,75.41
2023-05-19T04:19:44.273Z,62.84
2023-05-19T04:20:44.274Z,71.22
2023-05-19T04:21:44.286Z,70.25
2023-05-19T04:22:44.229Z,68.64
2023-05-19T04:23:44.274Z,66.71
2023-05-19T04:24:44.268Z,69.13
2023-05-19T04:25:44.213Z,72.35
2023-05-19T04:26:44.200Z,68.48
2023-05-19T04:27:44.237Z,62.84
2023-05-19T04:28:44.189Z,63.65
2023-05-19T04:29:44.190Z,62.36
2023-05-19T04:30:44.176Z,69.77
2023-05-19T04:31:44.347Z,67.19
2023-05-19T04:32:44.234Z,67.84
2023-05-19T04:33:44.162Z,65.10
2023-05-19T04:34:44.172Z,71.22
2023-05-19T04:35:44.173Z,71.38
2023-05-19T04:36:44.148Z,69.61
2023-05-19T04:37:44.121Z,71.54
2023-05-19T04:38:44.109Z,69.77
2023-05-19T04:39:44.132Z,68.16
2023-05-19T04:40:44.125Z,66.39
2023-05-19T04:41:44.099Z,67.51
2023-05-19T04:42:44.133Z,66.39
2023-05-19T04:43:44.076Z,78.47
2023-05-19T04:44:44.065Z,68.64
2023-05-19T04:45:44.065Z,65.90
2023-05-19T04:46:44.074Z,69.77
2023-05-19T04:47:44.105Z,71.38
2023-05-19T04:48:44.032Z,73.48
2023-05-19T04:49:44.023Z,69.13
2023-05-19T04:50:44.023Z,64.45
2023-05-19T04:51:44.027Z,71.06
2023-05-19T04:52:44.070Z,67.35
2023-05-19T04:53:44.004Z,69.61
2023-05-19T04:55:17.259Z,73.80
2023-05-19T04:55:43.981Z,68.00
2023-05-19T04:56:43.972Z,65.58
2023-05-19T04:57:43.961Z,77.18
2023-05-19T04:58:43.952Z,83.63
2023-05-19T04:59:43.956Z,83.63
2023-05-19T05:00:43.961Z,80.24
2023-05-19T05:01:44.018Z,77.99
2023-05-19T05:02:44.007Z,76.38
2023-05-19T05:03:43.984Z,74.77
2023-05-19T05:04:43.917Z,77.50
2023-05-19T05:05:43.891Z,77.50
2023-05-19T05:06:43.902Z,77.18
2023-05-19T05:07:43.905Z,73.15
2023-05-19T05:08:43.872Z,69.61
2023-05-19T05:09:43.868Z,65.26
2023-05-19T05:10:43.846Z,69.61
2023-05-19T05:11:43.854Z,65.58
2023-05-19T05:12:43.838Z,71.38
2023-05-19T05:13:43.842Z,66.87
2023-05-19T05:14:43.850Z,68.96
2023-05-19T05:15:43.833Z,67.51
2023-05-19T05:16:43.926Z,70.09
2023-05-19T05:17:43.881Z,70.90
2023-05-19T05:18:44.905Z,76.05
2023-05-19T05:19:44.815Z,70.58
2023-05-19T05:20:43.782Z,70.25
2023-05-19T05:21:43.805Z,69.61
2023-05-19T05:22:43.754Z,69.61
2023-05-19T05:23:43.755Z,65.42
2023-05-19T05:24:43.748Z,67.35
2023-05-19T05:25:43.751Z,68.16
2023-05-19T05:26:43.734Z,65.58
2023-05-19T05:27:43.726Z,65.74
2023-05-19T05:28:43.727Z,65.58
2023-05-19T05:29:43.702Z,65.74
2023-05-19T05:30:43.731Z,70.42
2023-05-19T05:31:43.702Z,65.58
2023-05-19T05:32:43.722Z,69.45
2023-05-19T05:33:43.726Z,69.13
2023-05-19T05:34:43.673Z,65.10
2023-05-19T05:35:43.666Z,69.13
2023-05-19T05:36:43.675Z,67.51
2023-05-19T05:37:43.652Z,72.51
2023-05-19T05:38:43.633Z,67.35
2023-05-19T05:39:43.633Z,66.71
2023-05-19T05:40:43.645Z,66.71
2023-05-19T05:41:43.631Z,62.04
2023-05-19T05:42:43.629Z,65.74
2023-05-19T05:43:43.611Z,66.55
2023-05-19T05:44:43.589Z,66.39
2023-05-19T05:45:43.640Z,66.87
2023-05-19T05:46:43.569Z,69.77
2023-05-19T05:47:43.582Z,65.26
2023-05-19T05:48:43.611Z,65.74
2023-05-19T05:49:43.550Z,67.35
2023-05-19T05:50:43.578Z,68.32
2023-05-19T05:51:54.320Z,67.51
2023-05-19T05:52:45.544Z,68.16
2023-05-19T05:53:43.537Z,69.61
2023-05-19T05:54:44.266Z,68.96
2023-05-19T05:55:43.512Z,64.61
2023-05-19T05:56:43.496Z,64.29
2023-05-19T05:57:43.503Z,67.35
2023-05-19T05:58:43.511Z,68.00
2023-05-19T05:59:43.487Z,66.39
2023-05-19T06:00:44.362Z,71.54
2023-05-19T06:01:43.462Z,68.32
2023-05-19T06:02:43.572Z,68.32
2023-05-19T06:03:44.482Z,70.09
2023-05-19T06:04:43.468Z,70.42
2023-05-19T06:05:43.500Z,68.16
2023-05-19T06:06:43.444Z,75.41
2023-05-19T06:07:43.431Z,68.16
2023-05-19T06:08:43.418Z,63.49
2023-05-19T06:09:43.402Z,70.42
2023-05-19T06:10:45.159Z,66.87
2023-05-19T06:11:43.394Z,65.74
2023-05-19T06:12:43.402Z,64.78
2023-05-19T06:13:43.377Z,67.68
2023-05-19T06:14:43.415Z,66.23
2023-05-19T06:15:44.332Z,68.48
2023-05-19T06:16:43.356Z,69.45
2023-05-19T06:17:43.363Z,66.87
2023-05-19T06:18:43.387Z,73.15
2023-05-19T06:19:43.348Z,76.38
2023-05-19T06:20:43.352Z,72.03
2023-05-19T06:21:43.327Z,67.84
2023-05-19T06:22:43.306Z,66.39
2023-05-19T06:23:43.306Z,64.78
2023-05-19T06:24:43.291Z,69.13
2023-05-19T06:25:44.934Z,73.15
2023-05-19T06:26:43.371Z,71.22
2023-05-19T06:27:44.866Z,67.03
2023-05-19T06:28:43.256Z,67.03
2023-05-19T06:29:43.354Z,70.58
2023-05-19T06:30:43.243Z,67.35
2023-05-19T06:31:43.337Z,67.68
2023-05-19T06:32:43.267Z,70.58
2023-05-19T06:33:43.299Z,67.68
2023-05-19T06:34:43.254Z,65.74
2023-05-19T06:35:43.198Z,70.90
2023-05-19T06:36:43.190Z,67.51
2023-05-19T06:37:43.179Z,72.35
2023-05-19T06:38:43.214Z,69.77
2023-05-19T06:39:43.157Z,69.13
2023-05-19T06:40:43.174Z,68.00
2023-05-19T06:41:44.881Z,67.68
2023-05-19T06:42:43.144Z,70.42
2023-05-19T06:43:43.143Z,69.77
2023-05-19T06:44:43.129Z,65.26
2023-05-19T06:45:43.135Z,66.23
2023-05-19T06:46:43.158Z,67.19
2023-05-19T06:47:43.132Z,66.39
2023-05-19T06:48:43.106Z,64.45
2023-05-19T06:49:43.873Z,64.29
2023-05-19T06:50:43.394Z,67.03
2023-05-19T06:51:43.140Z,68.32
2023-05-19T06:52:43.060Z,70.90
2023-05-19T06:53:43.068Z,70.74
2023-05-19T06:54:43.068Z,69.61
2023-05-19T06:55:57.444Z,67.51
2023-05-19T06:56:45.057Z,68.48
2023-05-19T06:57:43.035Z,70.09
2023-05-19T06:58:43.081Z,69.29
2023-05-19T06:59:43.011Z,67.84
2023-05-19T07:00:44.969Z,72.35
2023-05-19T07:01:43.037Z,65.58
2023-05-19T07:02:43.062Z,66.55
2023-05-19T07:03:43.111Z,68.64
2023-05-19T07:04:43.205Z,74.12
2023-05-19T07:05:42.962Z,69.45
2023-05-19T07:06:42.973Z,71.38
2023-05-19T07:07:43.056Z,67.03
2023-05-19T07:08:43.005Z,67.03
2023-05-19T07:09:42.945Z,67.51
2023-05-19T07:10:42.944Z,77.99
2023-05-19T07:11:42.920Z,66.39
2023-05-19T07:12:42.920Z,67.03
2023-05-19T07:13:42.887Z,66.39
2023-05-19T07:14:42.891Z,64.78
2023-05-19T07:15:42.912Z,69.29
2023-05-19T07:16:42.971Z,64.78
2023-05-19T07:17:42.969Z,68.00
2023-05-19T07:18:42.940Z,75.25
2023-05-19T07:19:42.864Z,65.26
2023-05-19T07:20:42.921Z,70.58
2023-05-19T07:21:42.843Z,72.03
2023-05-19T07:22:42.838Z,67.19
2023-05-19T07:23:42.848Z,68.48
2023-05-19T07:24:42.831Z,67.35
2023-05-19T07:25:42.814Z,66.06
2023-05-19T07:26:42.840Z,68.32
2023-05-19T07:27:44.387Z,71.54
2023-05-19T07:28:42.818Z,67.03
2023-05-19T07:29:42.814Z,67.68
2023-05-19T07:30:42.790Z,71.06
2023-05-19T07:31:42.873Z,65.90
2023-05-19T07:32:42.774Z,68.32
2023-05-19T07:33:42.761Z,69.45
2023-05-19T07:34:42.763Z,65.58
2023-05-19T07:35:42.760Z,73.80
2023-05-19T07:36:44.302Z,69.13
2023-05-19T07:37:42.727Z,72.99
2023-05-19T07:38:42.757Z,69.61
2023-05-19T07:39:42.729Z,68.64
2023-05-19T07:40:42.728Z,66.87
2023-05-19T07:41:42.706Z,68.00
2023-05-19T07:42:42.674Z,67.51
2023-05-19T07:43:42.675Z,68.96
2023-05-19T07:44:42.674Z,69.77
2023-05-19T07:45:42.676Z,68.48
2023-05-19T07:46:42.690Z,67.35
2023-05-19T07:47:42.679Z,71.54
2023-05-19T07:48:42.681Z,67.03
2023-05-19T07:49:42.644Z,71.54
2023-05-19T07:50:42.620Z,67.84
2023-05-19T07:51:42.611Z,68.48
2023-05-19T07:52:42.598Z,68.64
2023-05-19T07:53:42.929Z,68.32
2023-05-19T07:54:42.573Z,68.48
2023-05-19T07:55:43.587Z,70.25
2023-05-19T07:56:44.312Z,67.19
2023-05-19T07:57:42.565Z,69.29
2023-05-19T07:58:42.555Z,67.03
2023-05-19T07:59:42.558Z,70.74
2023-05-19T08:00:42.574Z,73.15
2023-05-19T08:01:42.545Z,69.13
2023-05-19T08:02:43.437Z,73.15
2023-05-19T08:03:43.503Z,69.29
2023-05-19T08:04:43.360Z,69.29
2023-05-19T08:05:43.398Z,66.39
2023-05-19T08:06:42.505Z,68.80
2023-05-19T08:07:42.513Z,67.84
2023-05-19T08:08:43.423Z,69.13
2023-05-19T08:09:44.478Z,66.55
2023-05-19T08:10:42.462Z,69.13
2023-05-19T08:11:42.472Z,77.02
2023-05-19T08:12:42.453Z,68.00
2023-05-19T08:13:42.451Z,67.35
2023-05-19T08:14:42.478Z,65.58
2023-05-19T08:15:42.489Z,69.77
2023-05-19T08:16:43.429Z,66.06
2023-05-19T08:17:42.450Z,68.32
2023-05-19T08:18:42.428Z,67.68
2023-05-19T08:19:42.402Z,72.19
2023-05-19T08:20:42.401Z,74.44
2023-05-19T08:21:42.379Z,68.48
2023-05-19T08:22:42.387Z,72.03
2023-05-19T08:23:42.917Z,71.54
2023-05-19T08:24:42.379Z,68.96
2023-05-19T08:25:43.351Z,69.13
2023-05-19T08:26:42.359Z,68.16
2023-05-19T08:27:42.337Z,65.74
2023-05-19T08:28:42.317Z,69.45
2023-05-19T08:29:42.327Z,67.51
2023-05-19T08:30:42.337Z,72.35
2023-05-19T08:31:43.363Z,70.42
2023-05-19T08:32:42.339Z,67.03
2023-05-19T08:33:42.302Z,69.93
2023-05-19T08:34:42.877Z,69.29
2023-05-19T08:35:42.284Z,65.74
2023-05-19T08:36:42.271Z,70.74
2023-05-19T08:37:42.408Z,67.84
2023-05-19T08:38:42.264Z,70.58
2023-05-19T08:39:42.259Z,66.06
2023-05-19T08:40:42.249Z,72.67
2023-05-19T08:41:42.226Z,68.00
2023-05-19T08:42:42.246Z,67.51
2023-05-19T08:43:42.921Z,69.13
2023-05-19T08:44:43.267Z,74.93
2023-05-19T08:45:42.285Z,67.84
2023-05-19T08:46:42.314Z,69.13
2023-05-19T08:47:42.218Z,65.90
2023-05-19T08:48:42.190Z,74.93
2023-05-19T08:49:42.166Z,69.13
2023-05-19T08:50:42.174Z,67.84
2023-05-19T08:51:42.179Z,68.32
2023-05-19T08:52:42.166Z,70.09
2023-05-19T08:53:42.236Z,67.19
2023-05-19T08:54:42.127Z,71.54
2023-05-19T08:55:42.136Z,66.71
2023-05-19T08:56:42.110Z,68.00
2023-05-19T08:57:42.117Z,72.03
2023-05-19T08:58:42.093Z,67.35
2023-05-19T08:59:42.101Z,72.19
2023-05-19T09:00:42.114Z,69.13
2023-05-19T09:01:42.879Z,68.80
2023-05-19T09:02:50.603Z,69.29
2023-05-19T09:03:44.099Z,69.29
2023-05-19T09:04:43.076Z,73.15
2023-05-19T09:05:42.059Z,72.35
2023-05-19T09:06:43.037Z,68.96
2023-05-19T09:07:42.063Z,73.15
2023-05-19T09:08:42.029Z,71.22
2023-05-19T09:09:43.018Z,67.03
2023-05-19T09:10:41.994Z,65.58
2023-05-19T09:11:41.997Z,68.48
2023-05-19T09:12:41.994Z,66.55
2023-05-19T09:13:41.987Z,67.03
2023-05-19T09:14:41.996Z,69.13
2023-05-19T09:15:41.974Z,70.58
2023-05-19T09:16:42.589Z,68.00
2023-05-19T09:17:42.992Z,68.16
2023-05-19T09:18:41.982Z,74.28
2023-05-19T09:19:41.927Z,68.16
2023-05-19T09:20:41.957Z,67.51
2023-05-19T09:21:42.115Z,72.19
2023-05-19T09:22:41.922Z,65.10
2023-05-19T09:23:41.921Z,68.00
2023-05-19T09:24:42.857Z,74.44
2023-05-19T09:25:41.891Z,68.32
2023-05-19T09:26:41.884Z,69.77
2023-05-19T09:27:41.880Z,69.29
2023-05-19T09:28:41.944Z,68.96
2023-05-19T09:29:41.855Z,68.80
2023-05-19T09:30:41.867Z,68.48
2023-05-19T09:31:41.858Z,71.22
2023-05-19T09:32:41.888Z,69.61
2023-05-19T09:33:45.209Z,70.74
2023-05-19T09:34:42.865Z,69.61
2023-05-19T09:35:41.876Z,71.06
2023-05-19T09:36:41.799Z,68.96
2023-05-19T09:37:42.449Z,70.74
2023-05-19T09:38:41.779Z,68.16
2023-05-19T09:39:41.766Z,67.35
2023-05-19T09:40:42.770Z,68.00
2023-05-19T09:41:43.459Z,65.42
2023-05-19T09:42:41.774Z,68.80
2023-05-19T09:43:41.740Z,67.19
2023-05-19T09:44:41.740Z,66.39
2023-05-19T09:45:41.772Z,67.35
2023-05-19T09:46:41.864Z,66.71
2023-05-19T09:47:41.765Z,70.09
2023-05-19T09:48:42.389Z,70.58
2023-05-19T09:49:41.729Z,69.93
2023-05-19T09:50:41.683Z,69.93
2023-05-19T09:51:41.679Z,71.70
2023-05-19T09:52:41.667Z,69.13
2023-05-19T09:53:41.669Z,69.13
2023-05-19T09:54:41.664Z,71.38
2023-05-19T09:55:41.642Z,70.09
2023-05-19T09:56:41.655Z,68.16
2023-05-19T09:57:41.783Z,68.48
2023-05-19T09:58:41.672Z,67.51
2023-05-19T09:59:41.617Z,71.22
2023-05-19T10:00:41.610Z,70.25
2023-05-19T10:01:41.637Z,69.29
2023-05-19T10:02:41.675Z,69.29
2023-05-19T10:03:42.589Z,68.64
2023-05-19T21:21:53.839Z,61.23
2023-05-19T21:22:54.945Z,66.87
2023-05-19T21:23:54.973Z,61.23
2023-05-19T21:24:54.968Z,64.61
2023-05-19T21:25:54.931Z,63.65
2023-05-19T21:26:54.922Z,63.81
2023-05-19T21:27:54.936Z,63.97
2023-05-19T21:28:54.910Z,62.20
2023-05-19T21:29:54.891Z,68.00
2023-05-19T21:30:54.900Z,61.39
2023-05-19T21:31:54.887Z,65.90
2023-05-19T21:32:54.972Z,64.13
2023-05-19T21:33:54.870Z,65.90
2023-05-19T21:34:54.839Z,69.13
2023-05-19T21:35:54.830Z,65.42
2023-05-19T21:36:54.832Z,64.94
2023-05-19T21:37:54.824Z,66.39
2023-05-19T21:38:54.808Z,64.45
2023-05-19T21:39:54.801Z,68.48
2023-05-19T21:40:54.794Z,67.68
2023-05-19T21:41:54.784Z,61.87
2023-05-19T21:42:54.764Z,68.96
2023-05-19T21:43:54.780Z,61.55
2023-05-19T21:44:54.749Z,64.78
2023-05-19T21:45:54.742Z,63.16
2023-05-19T21:46:54.770Z,61.87
2023-05-19T21:47:54.764Z,64.94
2023-05-19T21:48:54.733Z,68.16
2023-05-19T21:49:54.725Z,67.35
2023-05-19T21:50:54.718Z,66.23
2023-05-19T21:51:54.738Z,68.00
2023-05-19T21:52:54.702Z,71.38
2023-05-19T21:53:54.789Z,63.16
2023-05-19T21:54:54.677Z,66.87
2023-05-19T21:55:54.663Z,66.39
2023-05-19T21:56:54.648Z,59.46
2023-05-19T21:57:55.718Z,70.09
2023-05-19T21:58:55.637Z,71.22
2023-05-19T21:59:54.637Z,63.33
2023-05-19T22:00:54.644Z,68.96
2023-05-19T22:01:55.700Z,66.23
2023-05-19T22:02:54.687Z,67.03
2023-05-19T22:03:54.669Z,65.26
2023-05-19T22:04:54.596Z,65.90
2023-05-19T22:05:54.613Z,68.32
2023-05-19T22:06:54.591Z,73.32
2023-05-19T22:07:54.579Z,67.03
2023-05-19T22:08:55.232Z,67.03
2023-05-19T22:09:54.591Z,63.33
2023-05-19T22:10:54.538Z,65.58
2023-05-19T22:11:54.565Z,64.78
2023-05-19T22:12:54.561Z,62.36
2023-05-19T22:13:54.522Z,66.87
2023-05-19T22:14:54.510Z,63.97
2023-05-19T22:15:54.535Z,66.39
2023-05-19T22:16:54.543Z,65.58
2023-05-19T22:17:54.497Z,63.97
2023-05-19T22:18:54.508Z,65.74
2023-05-19T22:19:54.473Z,67.19
2023-05-19T22:20:54.475Z,66.71
2023-05-19T22:22:02.007Z,68.32
2023-05-19T22:22:56.690Z,61.55
2023-05-19T22:23:54.457Z,67.84
2023-05-19T22:24:54.553Z,65.90
2023-05-19T22:25:55.369Z,72.03
2023-05-19T22:26:54.440Z,63.16
2023-05-19T22:27:54.435Z,63.33
2023-05-19T22:28:54.438Z,79.12
2023-05-19T22:29:54.419Z,66.39
2023-05-19T22:30:54.499Z,64.61
2023-05-19T22:31:54.389Z,64.29
2023-05-19T22:32:54.494Z,61.23
2023-05-19T22:33:54.419Z,57.85
2023-05-19T22:34:54.449Z,69.77
2023-05-19T22:35:55.284Z,66.55
2023-05-19T22:36:55.307Z,62.04
2023-05-19T22:37:54.337Z,57.69
2023-05-19T22:38:54.328Z,61.23
2023-05-19T22:39:54.330Z,65.42
2023-05-19T22:40:54.313Z,66.39
2023-05-19T22:41:55.282Z,66.71
2023-05-19T22:42:54.310Z,66.06
2023-05-19T22:43:54.299Z,65.10
2023-05-19T22:44:54.277Z,61.71
2023-05-19T22:45:54.282Z,61.55
2023-05-19T22:46:55.139Z,58.97
2023-05-19T22:47:54.320Z,72.19
2023-05-19T22:48:54.252Z,61.55
2023-05-19T22:49:57.121Z,65.74
2023-05-19T22:50:54.230Z,62.84
2023-05-19T22:51:54.247Z,61.87
2023-05-19T22:52:54.210Z,64.13
2023-05-19T22:53:54.213Z,62.20
2023-05-19T22:54:54.207Z,63.00
2023-05-19T22:55:54.204Z,63.97
2023-05-19T22:56:54.192Z,61.71
2023-05-19T22:57:54.169Z,62.52
2023-05-19T22:58:54.454Z,66.39
2023-05-19T22:59:54.258Z,63.33
2023-05-19T23:00:54.175Z,59.30
2023-05-19T23:01:54.150Z,65.58
2023-05-19T23:02:54.230Z,63.97
2023-05-19T23:03:54.149Z,56.40
2023-05-19T23:04:54.138Z,65.42
2023-05-19T23:05:54.101Z,61.55
2023-05-19T23:06:54.730Z,59.14
2023-05-19T23:07:54.086Z,65.90
2023-05-19T23:08:54.154Z,63.16
2023-05-19T23:09:54.088Z,62.52
2023-05-19T23:10:54.064Z,62.68
2023-05-19T23:11:54.658Z,63.00
2023-05-19T23:12:54.051Z,62.68
2023-05-19T23:13:54.036Z,64.45
2023-05-19T23:14:54.054Z,63.33
2023-05-19T23:15:54.031Z,72.19
2023-05-19T23:16:54.087Z,65.58
2023-05-19T23:17:54.039Z,61.39
2023-05-19T23:18:54.034Z,63.65
2023-05-19T23:19:53.997Z,56.56
2023-05-19T23:20:53.979Z,66.23
2023-05-19T23:21:54.763Z,58.65
2023-05-19T23:22:53.971Z,70.58
2023-05-19T23:23:53.974Z,70.25
2023-05-19T23:24:53.952Z,61.55
2023-05-19T23:25:53.962Z,70.42
2023-05-19T23:26:53.939Z,64.13
2023-05-19T23:27:53.928Z,68.16
2023-05-19T23:28:53.934Z,58.33
2023-05-19T23:29:53.923Z,66.87
2023-05-19T23:30:54.679Z,55.43
2023-05-19T23:31:53.914Z,71.54
2023-05-19T23:32:54.069Z,62.84
2023-05-19T23:33:53.914Z,61.23
2023-05-19T23:34:53.890Z,70.42
2023-05-19T23:35:53.879Z,65.26
2023-05-19T23:36:54.747Z,65.26
2023-05-19T23:37:53.868Z,61.39
2023-05-19T23:38:53.850Z,66.39
2023-05-19T23:39:53.891Z,68.00
2023-05-19T23:40:53.835Z,63.65
2023-05-19T23:41:53.808Z,62.20
2023-05-19T23:42:53.824Z,65.26
2023-05-19T23:43:53.805Z,68.00
2023-05-19T23:44:53.830Z,65.74
2023-05-19T23:45:53.786Z,71.70
2023-05-19T23:46:53.873Z,70.58
2023-05-19T23:47:53.843Z,61.39
2023-05-19T23:48:53.768Z,63.16
2023-05-19T23:49:53.763Z,60.26
2023-05-19T23:50:53.756Z,63.81
2023-05-19T23:51:53.742Z,69.93
2023-05-19T23:52:53.729Z,61.23
2023-05-19T23:53:53.764Z,65.26
2023-05-19T23:54:53.738Z,61.87
2023-05-19T23:55:53.719Z,64.13
2023-05-19T23:56:53.701Z,63.33
2023-05-19T23:57:53.745Z,60.42
2023-05-19T23:58:53.737Z,63.65
2023-05-19T23:59:53.677Z,58.01
